createdAt,value
2024-03-19T00:05:57.489Z,58.00
2024-03-19T00:15:57.827Z,58.59
2024-03-19T00:25:58.370Z,59.39
2024-03-19T00:35:58.952Z,59.14
2024-03-19T00:45:59.136Z,58.97
2024-03-19T00:55:59.809Z,60.01
2024-03-19T01:06:00.107Z,61.96
2024-03-19T01:16:00.615Z,62.03
2024-03-19T01:26:00.816Z,63.23
2024-03-19T01:36:01.165Z,65.08
2024-03-19T01:46:01.806Z,65.75
2024-03-19T01:56:02.082Z,61.30
2024-03-19T02:06:02.345Z,60.98
2024-03-19T02:16:02.648Z,61.31
2024-03-19T02:26:03.232Z,66.08
2024-03-19T02:36:03.523Z,66.15
2024-03-19T02:46:03.788Z,66.88
2024-03-19T02:56:04.024Z,67.17
2024-03-19T03:06:04.658Z,66.80
2024-03-19T03:16:04.824Z,67.26
2024-03-19T03:26:05.519Z,66.63
2024-03-19T03:36:05.798Z,67.72
2024-03-19T03:46:05.973Z,67.82
2024-03-19T04:06:06.891Z,69.25
2024-03-19T04:16:07.205Z,69.77
2024-03-19T04:26:07.555Z,70.37
2024-03-19T04:36:07.935Z,71.15
2024-03-19T04:46:08.353Z,71.54
2024-03-19T04:56:08.626Z,71.57
2024-03-19T05:06:09.195Z,71.53
2024-03-19T05:16:09.497Z,72.04
2024-03-19T05:26:09.762Z,71.35
2024-03-19T05:36:09.959Z,71.34
2024-03-19T05:46:10.319Z,69.74
2024-03-19T05:56:10.604Z,67.60
2024-03-19T06:06:10.849Z,65.20
2024-03-19T06:16:11.200Z,64.27
2024-03-19T06:26:11.534Z,62.44
2024-03-19T06:36:11.927Z,62.48
2024-03-19T06:46:12.366Z,62.10
2024-03-19T06:56:12.671Z,61.48
2024-03-19T07:06:13.425Z,60.65
2024-03-19T07:16:13.383Z,60.09
2024-03-19T07:26:14.021Z,59.67
2024-03-19T07:36:14.255Z,59.79
2024-03-19T07:46:14.876Z,60.21
2024-03-19T07:56:15.118Z,58.82
2024-03-19T08:06:15.743Z,56.96
2024-03-19T08:16:16.328Z,55.57
2024-03-19T08:26:16.550Z,53.34
2024-03-19T08:36:17.002Z,51.83
2024-03-19T08:46:17.495Z,49.04
2024-03-19T08:56:18.067Z,45.83
2024-03-19T09:06:18.646Z,43.13
2024-03-19T09:26:20.115Z,41.37
2024-03-19T09:36:21.101Z,40.82
2024-03-19T09:46:21.538Z,41.92
2024-03-19T09:56:22.285Z,40.21
2024-03-19T10:06:22.997Z,40.21
2024-03-19T10:16:23.720Z,40.27
2024-03-19T10:26:24.363Z,39.65
2024-03-19T10:36:25.081Z,39.21
2024-03-19T10:46:25.768Z,39.92
2024-03-19T10:56:26.615Z,39.90
2024-03-19T11:06:27.161Z,40.04
2024-03-19T11:16:27.817Z,40.61
2024-03-19T11:26:28.529Z,40.17
2024-03-19T11:36:29.566Z,39.95
2024-03-19T11:46:30.141Z,39.21
2024-03-19T11:56:31.024Z,38.91
2024-03-19T12:06:31.941Z,39.21
2024-03-19T12:16:32.531Z,40.76
2024-03-19T12:26:33.407Z,41.11
2024-03-19T12:36:34.004Z,41.17
2024-03-19T12:46:34.587Z,39.99
2024-03-19T12:56:35.308Z,39.99
2024-03-19T13:06:36.315Z,40.26
2024-03-19T13:16:36.652Z,40.47
2024-03-19T13:26:37.691Z,40.52
2024-03-19T13:46:38.547Z,40.67
2024-03-19T13:56:41.096Z,40.24
2024-03-19T14:06:39.874Z,40.51
2024-03-19T14:16:40.765Z,40.59
2024-03-19T14:26:41.362Z,40.51
2024-03-19T14:36:41.949Z,40.73
2024-03-19T14:46:42.883Z,40.58
2024-03-19T14:56:43.234Z,40.47
2024-03-19T15:06:43.948Z,40.80
2024-03-19T15:16:44.935Z,40.52
2024-03-19T15:26:45.344Z,40.79
2024-03-19T15:36:46.030Z,40.67
2024-03-19T15:46:46.808Z,40.82
2024-03-19T15:56:47.507Z,40.73
2024-03-19T16:06:48.264Z,40.53
2024-03-19T16:16:48.998Z,40.80
2024-03-19T16:26:49.766Z,40.76
2024-03-19T16:36:50.508Z,41.02
2024-03-19T16:46:51.303Z,41.75
2024-03-19T16:56:51.846Z,42.54
2024-03-19T17:06:52.403Z,43.59
2024-03-19T17:16:53.057Z,44.29
2024-03-19T17:26:53.654Z,45.24
2024-03-19T17:36:54.186Z,45.50
2024-03-19T17:46:54.799Z,46.18
2024-03-19T17:56:55.473Z,46.94
2024-03-19T18:06:56.069Z,48.20
2024-03-19T18:16:56.609Z,48.27
2024-03-19T18:26:56.949Z,48.78
2024-03-19T18:36:57.469Z,49.22
2024-03-19T18:46:57.961Z,49.79
2024-03-19T18:56:58.504Z,50.42
2024-03-19T19:06:59.107Z,50.90
2024-03-19T19:26:59.876Z,54.09
2024-03-19T19:37:00.673Z,54.58
2024-03-19T19:47:00.857Z,55.76
2024-03-19T19:57:01.290Z,58.01
2024-03-19T20:07:01.676Z,56.94
2024-03-19T20:17:02.144Z,57.94
2024-03-19T20:27:02.433Z,61.37
2024-03-19T20:37:02.998Z,64.73
2024-03-19T20:47:03.346Z,67.78
2024-03-19T20:57:03.559Z,68.27
2024-03-19T21:07:03.847Z,70.15
2024-03-19T21:17:04.063Z,71.65
2024-03-19T21:27:04.279Z,71.67
2024-03-19T21:37:04.923Z,71.14
2024-03-19T21:47:04.948Z,69.71
2024-03-19T21:57:05.222Z,71.06
2024-03-19T22:07:05.507Z,73.61
2024-03-19T22:17:05.785Z,74.53
2024-03-19T22:27:06.066Z,75.66
2024-03-19T22:37:06.309Z,75.37
2024-03-19T22:47:06.602Z,75.47
2024-03-19T22:57:06.572Z,75.42
2024-03-19T23:07:06.826Z,75.47
2024-03-19T23:17:07.152Z,75.37
2024-03-19T23:27:07.088Z,76.47
2024-03-19T23:37:07.325Z,77.70
2024-03-19T23:47:07.337Z,75.92
2024-03-19T23:57:07.319Z,76.91
